Time;durP1;ratioP1;P1;durP2;ratioP2;P2;SDS_P1;SDS_P2;PMS_P1;PMS_P2;Temp;Humidity;BMP_temperature;BMP_pressure;BME280_temperature;BME280_humidity;BME280_pressure;Samples;Min_cycle;Max_cycle;Signal;HPM_P1;HPM_P2
2023/06/04 00:03:17;;;;;;;0.70;0.70;;;;;;;;;;10250392;28;20293;-77
2023/06/04 00:08:18;;;;;;;0.85;0.80;;;;;;;;;;10256197;28;21856;-76
2023/06/04 00:13:19;;;;;;;1.20;0.70;;;;;;;;;;10255348;28;20227;-78
2023/06/04 00:18:20;;;;;;;0.77;0.77;;;;;;;;;;10248632;28;23711;-78
2023/06/04 00:23:21;;;;;;;0.77;0.77;;;;;;;;;;10266048;28;20321;-76
2023/06/04 00:28:23;;;;;;;1.98;1.00;;;;;;;;;;10284212;28;20214;-80
2023/06/04 00:33:24;;;;;;;1.10;1.00;;;;;;;;;;10272752;28;20718;-78
2023/06/04 00:38:25;;;;;;;1.08;0.93;;;;;;;;;;10244206;28;20321;-78
2023/06/04 00:43:26;;;;;;;1.08;0.90;;;;;;;;;;10269717;28;20869;-78
2023/06/04 00:48:28;;;;;;;2.42;1.02;;;;;;;;;;10275166;28;20215;-79
2023/06/04 00:53:29;;;;;;;0.93;0.93;;;;;;;;;;10307449;28;20241;-78
2023/06/04 00:58:30;;;;;;;0.80;0.80;;;;;;;;;;10277520;28;20328;-79
2023/06/04 01:03:32;;;;;;;0.80;0.80;;;;;;;;;;10271854;28;21908;-79
2023/06/04 01:08:34;;;;;;;0.90;0.90;;;;;;;;;;10300178;28;20745;-79
2023/06/04 01:13:35;;;;;;;1.00;0.90;;;;;;;;;;10321385;28;20225;-78
2023/06/04 01:18:37;;;;;;;2.65;0.77;;;;;;;;;;10321379;28;22550;-78
2023/06/04 01:23:47;;;;;;;1.50;0.60;;;;;;;;;;10304203;28;20214;-80
2023/06/04 01:28:48;;;;;;;0.60;0.60;;;;;;;;;;10308996;28;20313;-78
2023/06/04 01:33:53;;;;;;;1.10;0.70;;;;;;;;;;10328102;28;20214;-79
2023/06/04 01:38:54;;;;;;;0.70;0.70;;;;;;;;;;10329138;28;20222;-79
2023/06/04 01:43:55;;;;;;;0.60;0.60;;;;;;;;;;10336416;28;20898;-79
2023/06/04 01:48:56;;;;;;;0.73;0.60;;;;;;;;;;10310857;28;21350;-79
2023/06/04 01:53:58;;;;;;;0.93;0.65;;;;;;;;;;10291739;28;20221;-78
2023/06/04 01:59:01;;;;;;;1.10;0.63;;;;;;;;;;10269597;28;21127;-78
2023/06/04 02:04:02;;;;;;;0.60;0.60;;;;;;;;;;10274207;28;20283;-78
2023/06/04 02:09:03;;;;;;;0.60;0.60;;;;;;;;;;10288133;28;20221;-79
2023/06/04 02:14:04;;;;;;;0.70;0.70;;;;;;;;;;10257565;28;22358;-80
2023/06/04 02:19:05;;;;;;;1.50;0.60;;;;;;;;;;10301642;28;20352;-79
2023/06/04 02:24:06;;;;;;;2.50;0.90;;;;;;;;;;10316550;28;23071;-81
2023/06/04 02:29:07;;;;;;;2.17;0.70;;;;;;;;;;10339374;28;20785;-78
2023/06/04 02:34:08;;;;;;;0.50;0.50;;;;;;;;;;10326203;28;20249;-80
2023/06/04 02:39:10;;;;;;;0.55;0.45;;;;;;;;;;10283225;28;20301;-80
2023/06/04 02:44:11;;;;;;;0.98;0.82;;;;;;;;;;10313888;28;20761;-79
2023/06/04 02:49:13;;;;;;;0.60;0.60;;;;;;;;;;10308306;28;20301;-77
2023/06/04 02:54:15;;;;;;;0.50;0.50;;;;;;;;;;10231337;28;20230;-77
2023/06/04 02:59:16;;;;;;;0.50;0.50;;;;;;;;;;10239019;28;20345;-78
2023/06/04 03:04:18;;;;;;;1.73;0.43;;;;;;;;;;10273732;28;20214;-78
2023/06/04 03:09:19;;;;;;;0.63;0.63;;;;;;;;;;10251203;28;20255;-77
2023/06/04 03:14:20;;;;;;;0.60;0.60;;;;;;;;;;10258073;28;20349;-79
2023/06/04 03:19:21;;;;;;;3.70;0.50;;;;;;;;;;10262724;28;20215;-77
2023/06/04 03:24:23;;;;;;;0.98;0.63;;;;;;;;;;10225922;28;21007;-78
2023/06/04 03:29:24;;;;;;;0.50;0.50;;;;;;;;;;10241954;28;23057;-77
2023/06/04 03:34:27;;;;;;;1.15;0.60;;;;;;;;;;10251332;28;20282;-78
2023/06/04 03:39:28;;;;;;;0.47;0.47;;;;;;;;;;10257047;28;20234;-78
2023/06/04 03:44:30;;;;;;;1.25;0.70;;;;;;;;;;10251983;28;20863;-77
2023/06/04 03:49:31;;;;;;;0.55;0.50;;;;;;;;;;10262498;28;22210;-77
2023/06/04 03:54:32;;;;;;;0.98;0.60;;;;;;;;;;10295115;28;20345;-79
2023/06/04 03:59:34;;;;;;;1.20;0.60;;;;;;;;;;10303218;28;20223;-78
2023/06/04 04:04:36;;;;;;;0.70;0.70;;;;;;;;;;10296140;28;20233;-78
2023/06/04 04:09:37;;;;;;;0.60;0.60;;;;;;;;;;10309388;28;20233;-78
2023/06/04 04:14:38;;;;;;;0.73;0.60;;;;;;;;;;10305250;28;20441;-78
2023/06/04 04:19:40;;;;;;;0.60;0.60;;;;;;;;;;10303085;28;20223;-77
2023/06/04 04:24:41;;;;;;;0.70;0.70;;;;;;;;;;10310012;28;20553;-79
2023/06/04 04:29:47;;;;;;;0.73;0.73;;;;;;;;;;10308476;28;20243;-78
2023/06/04 04:34:53;;;;;;;4.03;0.70;;;;;;;;;;10322343;28;20218;-78
2023/06/04 04:39:56;;;;;;;0.73;0.73;;;;;;;;;;10319194;28;20229;-77
2023/06/04 04:45:00;;;;;;;0.50;0.50;;;;;;;;;;10331312;28;20226;-79
2023/06/04 04:50:02;;;;;;;3.97;1.00;;;;;;;;;;10359889;28;20237;-79
2023/06/04 04:55:03;;;;;;;1.20;0.80;;;;;;;;;;10336988;28;20246;-78
2023/06/04 05:00:09;;;;;;;1.10;1.00;;;;;;;;;;10297717;28;20229;-79
2023/06/04 05:05:12;;;;;;;1.75;0.68;;;;;;;;;;10288056;28;20187;-79
2023/06/04 05:10:14;;;;;;;4.00;1.08;;;;;;;;;;10303967;28;20215;-79
2023/06/04 05:15:18;;;;;;;1.48;0.85;;;;;;;;;;10305920;28;20365;-79
2023/06/04 05:20:20;;;;;;;0.70;0.70;;;;;;;;;;10322216;28;21791;-77
2023/06/04 05:25:22;;;;;;;0.95;0.90;;;;;;;;;;10285482;28;20226;-78
2023/06/04 05:30:23;;;;;;;0.80;0.80;;;;;;;;;;10303403;28;20588;-78
2023/06/04 05:35:25;;;;;;;1.05;0.82;;;;;;;;;;10286451;28;20492;-79
2023/06/04 05:40:26;;;;;;;0.98;0.98;;;;;;;;;;10275992;28;20226;-78
2023/06/04 05:45:28;;;;;;;1.13;0.77;;;;;;;;;;10311967;28;20318;-79
2023/06/04 05:50:30;;;;;;;1.38;1.27;;;;;;;;;;10288101;28;20798;-78
2023/06/04 05:55:31;;;;;;;0.98;0.98;;;;;;;;;;10278039;28;20215;-78
2023/06/04 06:00:33;;;;;;;1.70;0.98;;;;;;;;;;10281221;28;20230;-79
2023/06/04 06:05:34;;;;;;;0.77;0.77;;;;;;;;;;10291795;28;20218;-78
2023/06/04 06:10:36;;;;;;;0.82;0.82;;;;;;;;;;10306298;28;20730;-78
2023/06/04 06:15:38;;;;;;;9.95;1.10;;;;;;;;;;10288903;28;20210;-77
2023/06/04 06:20:39;;;;;;;5.28;1.00;;;;;;;;;;10289285;28;20930;-78
2023/06/04 06:25:40;;;;;;;1.45;0.93;;;;;;;;;;10300584;28;20213;-78
2023/06/04 06:30:47;;;;;;;1.55;1.00;;;;;;;;;;10287892;28;20239;-78
2023/06/04 06:35:48;;;;;;;0.90;0.90;;;;;;;;;;10289034;28;20332;-78
2023/06/04 06:40:50;;;;;;;7.38;0.82;;;;;;;;;;10304948;28;20233;-78
2023/06/04 06:45:51;;;;;;;0.90;0.90;;;;;;;;;;10279257;28;20768;-80
2023/06/04 06:50:52;;;;;;;1.35;0.90;;;;;;;;;;10293835;28;20239;-78
2023/06/04 06:55:53;;;;;;;0.90;0.90;;;;;;;;;;10293932;28;20464;-77
2023/06/04 07:00:56;;;;;;;1.00;0.63;;;;;;;;;;10281474;28;20842;-78
2023/06/04 07:05:57;;;;;;;0.82;0.80;;;;;;;;;;10272867;28;21498;-78
2023/06/04 07:10:59;;;;;;;0.70;0.70;;;;;;;;;;10304609;28;20356;-79
2023/06/04 07:16:00;;;;;;;0.93;0.70;;;;;;;;;;10310063;28;20868;-79
2023/06/04 07:21:01;;;;;;;1.30;0.90;;;;;;;;;;10313783;28;20360;-80
2023/06/04 07:26:02;;;;;;;1.30;0.68;;;;;;;;;;10309845;28;20330;-81
2023/06/04 07:31:03;;;;;;;0.95;0.70;;;;;;;;;;10289464;28;20264;-81
2023/06/04 07:36:05;;;;;;;0.73;0.70;;;;;;;;;;10282775;28;20298;-79
2023/06/04 07:41:06;;;;;;;1.58;0.68;;;;;;;;;;10261705;28;21062;-77
2023/06/04 07:46:07;;;;;;;1.75;0.50;;;;;;;;;;10286823;28;20214;-78
2023/06/04 07:51:08;;;;;;;1.27;0.60;;;;;;;;;;10293900;28;21734;-80
2023/06/04 07:56:09;;;;;;;0.45;0.45;;;;;;;;;;10296157;28;20238;-78
2023/06/04 08:01:10;;;;;;;0.40;0.40;;;;;;;;;;10298211;28;20248;-80
2023/06/04 08:06:14;;;;;;;0.75;0.50;;;;;;;;;;10321982;28;20382;-77
2023/06/04 08:11:15;;;;;;;1.27;0.43;;;;;;;;;;10325463;28;20841;-78
2023/06/04 08:16:18;;;;;;;1.10;0.40;;;;;;;;;;10331483;28;20271;-78
2023/06/04 08:21:45;;;;;;;0.60;0.50;;;;;;;;;;10332918;28;20222;-78
2023/06/04 08:27:37;;;;;;;0.50;0.50;;;;;;;;;;10349857;28;20219;-78
2023/06/04 08:32:40;;;;;;;0.55;0.40;;;;;;;;;;10342566;28;21085;-78
2023/06/04 08:38:10;;;;;;;0.40;0.40;;;;;;;;;;10343721;28;20996;-79
2023/06/04 08:44:02;;;;;;;0.30;0.30;;;;;;;;;;10371105;28;20920;-80
2023/06/04 08:55:39;;;;;;;0.30;0.30;;;;;;;;;;9464907;28;21982;-78
2023/06/04 09:00:40;;;;;;;0.40;0.40;;;;;;;;;;10249590;28;20976;-79
2023/06/04 09:05:47;;;;;;;0.30;0.30;;;;;;;;;;10259540;28;22391;-78
2023/06/04 09:10:51;;;;;;;0.40;0.40;;;;;;;;;;10279364;28;20223;-78
2023/06/04 09:16:03;;;;;;;0.73;0.40;;;;;;;;;;10277552;28;20211;-79
2023/06/04 09:21:08;;;;;;;0.30;0.30;;;;;;;;;;10276681;28;20231;-79
2023/06/04 09:26:09;;;;;;;0.70;0.38;;;;;;;;;;10310703;28;22945;-78
2023/06/04 09:31:11;;;;;;;0.30;0.30;;;;;;;;;;10310173;28;20218;-80
2023/06/04 09:36:12;;;;;;;0.30;0.30;;;;;;;;;;10259004;28;21411;-77
2023/06/04 09:41:14;;;;;;;0.30;0.30;;;;;;;;;;10278589;28;21448;-80
2023/06/04 09:46:16;;;;;;;4.68;0.47;;;;;;;;;;10302262;28;20834;-80
2023/06/04 09:51:19;;;;;;;0.98;0.40;;;;;;;;;;10328675;28;20223;-80
2023/06/04 09:56:21;;;;;;;0.20;0.20;;;;;;;;;;10320696;28;20773;-77
2023/06/04 10:01:23;;;;;;;0.85;0.43;;;;;;;;;;10312123;28;20276;-78
2023/06/04 10:06:26;;;;;;;0.63;0.30;;;;;;;;;;10346085;28;20750;-77
2023/06/04 10:11:31;;;;;;;1.95;0.30;;;;;;;;;;10331819;28;23416;-79
2023/06/04 10:16:33;;;;;;;1.95;0.50;;;;;;;;;;10319708;28;20220;-79
2023/06/04 10:21:37;;;;;;;0.30;0.30;;;;;;;;;;10312456;28;20236;-79
2023/06/04 10:26:40;;;;;;;2.85;0.50;;;;;;;;;;10331506;28;20214;-78
2023/06/04 10:31:41;;;;;;;0.30;0.30;;;;;;;;;;10325777;28;21372;-79
2023/06/04 10:36:44;;;;;;;0.40;0.40;;;;;;;;;;10317292;28;21086;-77
2023/06/04 10:41:45;;;;;;;0.40;0.40;;;;;;;;;;10331136;28;20222;-82
2023/06/04 10:46:46;;;;;;;0.75;0.40;;;;;;;;;;10335928;28;20221;-81
2023/06/04 10:51:47;;;;;;;0.80;0.80;;;;;;;;;;10294395;28;20217;-80
2023/06/04 10:56:49;;;;;;;0.40;0.40;;;;;;;;;;10328134;28;20226;-79
2023/06/04 11:01:50;;;;;;;0.30;0.30;;;;;;;;;;10324208;28;20245;-80
2023/06/04 11:07:02;;;;;;;0.30;0.30;;;;;;;;;;10343315;28;22183;-81
2023/06/04 11:12:04;;;;;;;0.43;0.38;;;;;;;;;;10331462;28;20329;-81
2023/06/04 11:17:12;;;;;;;0.30;0.30;;;;;;;;;;10323673;28;20246;-81
2023/06/04 11:22:13;;;;;;;0.40;0.40;;;;;;;;;;10345268;28;20246;-80
2023/06/04 11:27:14;;;;;;;0.85;0.40;;;;;;;;;;10325207;28;20941;-81
2023/06/04 11:32:25;;;;;;;0.35;0.35;;;;;;;;;;10342058;28;20329;-82
2023/06/04 11:37:30;;;;;;;4.57;0.40;;;;;;;;;;10337252;28;20220;-82
2023/06/04 11:42:31;;;;;;;0.35;0.35;;;;;;;;;;10351590;28;21439;-82
2023/06/04 11:47:32;;;;;;;5.03;0.40;;;;;;;;;;10363978;28;20211;-81
2023/06/04 11:52:34;;;;;;;0.30;0.30;;;;;;;;;;10334373;28;21144;-80
2023/06/04 11:57:35;;;;;;;2.08;0.47;;;;;;;;;;10349680;28;20222;-80
2023/06/04 12:02:37;;;;;;;0.30;0.30;;;;;;;;;;10300065;28;21175;-78
2023/06/04 12:07:38;;;;;;;0.30;0.30;;;;;;;;;;10308656;28;20229;-78
2023/06/04 12:12:40;;;;;;;0.30;0.30;;;;;;;;;;10303006;28;20308;-79
2023/06/04 12:17:54;;;;;;;0.40;0.40;;;;;;;;;;10310137;28;20226;-78
2023/06/04 12:22:55;;;;;;;2.10;0.40;;;;;;;;;;10298902;28;20229;-81
2023/06/04 12:27:56;;;;;;;0.40;0.40;;;;;;;;;;10319759;28;20654;-79
2023/06/04 12:32:57;;;;;;;0.30;0.30;;;;;;;;;;10328490;28;20436;-80
2023/06/04 12:37:58;;;;;;;0.88;0.38;;;;;;;;;;10297868;28;20218;-78
2023/06/04 12:42:59;;;;;;;0.40;0.40;;;;;;;;;;10312397;28;20214;-78
2023/06/04 12:48:00;;;;;;;0.35;0.35;;;;;;;;;;10298010;28;20246;-81
2023/06/04 12:53:02;;;;;;;0.30;0.30;;;;;;;;;;10312113;28;20242;-81
2023/06/04 12:58:03;;;;;;;0.30;0.30;;;;;;;;;;10295626;28;21768;-78
2023/06/04 13:03:04;;;;;;;0.30;0.30;;;;;;;;;;10292290;28;20923;-79
2023/06/04 13:08:05;;;;;;;0.35;0.35;;;;;;;;;;10288424;28;20236;-80
2023/06/04 13:13:06;;;;;;;0.40;0.40;;;;;;;;;;10315993;28;20279;-80
2023/06/04 13:18:07;;;;;;;0.32;0.32;;;;;;;;;;10287175;28;20214;-78
2023/06/04 13:23:10;;;;;;;0.30;0.30;;;;;;;;;;10328347;28;20652;-78
2023/06/04 13:28:11;;;;;;;0.40;0.40;;;;;;;;;;10308378;28;20229;-79
2023/06/04 13:33:13;;;;;;;2.53;0.30;;;;;;;;;;10335001;28;20226;-81
2023/06/04 13:38:14;;;;;;;0.40;0.40;;;;;;;;;;10381584;28;20746;-78
2023/06/04 13:43:15;;;;;;;0.30;0.30;;;;;;;;;;10406094;28;20214;-82
2023/06/04 13:48:16;;;;;;;0.43;0.43;;;;;;;;;;10361556;28;20824;-83
2023/06/04 13:53:17;;;;;;;0.38;0.38;;;;;;;;;;10373416;28;20233;-81
2023/06/04 13:58:19;;;;;;;0.30;0.30;;;;;;;;;;10378908;28;20222;-80
2023/06/04 14:03:20;;;;;;;0.82;0.35;;;;;;;;;;10425991;28;20574;-78
2023/06/04 14:08:21;;;;;;;0.52;0.45;;;;;;;;;;10377083;28;20276;-80
2023/06/04 14:13:22;;;;;;;1.23;0.40;;;;;;;;;;10403556;28;20593;-78
2023/06/04 14:18:24;;;;;;;0.40;0.40;;;;;;;;;;10383695;28;20210;-81
2023/06/04 14:23:25;;;;;;;1.35;0.40;;;;;;;;;;10330540;28;20866;-79
2023/06/04 14:28:26;;;;;;;5.18;0.47;;;;;;;;;;10307662;28;21302;-80
2023/06/04 14:33:27;;;;;;;0.40;0.40;;;;;;;;;;10351248;28;20222;-77
2023/06/04 14:38:28;;;;;;;0.32;0.32;;;;;;;;;;10340078;28;21330;-78
2023/06/04 14:43:29;;;;;;;0.40;0.40;;;;;;;;;;10335744;28;20352;-78
2023/06/04 14:48:30;;;;;;;0.40;0.40;;;;;;;;;;10306273;28;20233;-82
2023/06/04 14:53:31;;;;;;;0.35;0.35;;;;;;;;;;10305099;28;20221;-77
2023/06/04 14:58:32;;;;;;;1.13;0.43;;;;;;;;;;10303490;28;20225;-79
2023/06/04 15:03:33;;;;;;;0.43;0.43;;;;;;;;;;10288287;28;21578;-78
2023/06/04 15:08:35;;;;;;;0.93;0.50;;;;;;;;;;10299559;28;20656;-79
2023/06/04 15:13:36;;;;;;;0.30;0.30;;;;;;;;;;10339311;28;20218;-81
2023/06/04 15:18:37;;;;;;;0.50;0.50;;;;;;;;;;10321553;28;20306;-83
2023/06/04 15:23:38;;;;;;;0.50;0.40;;;;;;;;;;10323969;28;20241;-82
2023/06/04 15:28:39;;;;;;;3.70;0.40;;;;;;;;;;10306947;28;20713;-83
2023/06/04 15:33:40;;;;;;;1.60;0.43;;;;;;;;;;10308163;28;20225;-81
2023/06/04 15:38:41;;;;;;;0.30;0.30;;;;;;;;;;10304485;28;20347;-84
2023/06/04 15:43:42;;;;;;;0.30;0.30;;;;;;;;;;10324440;28;20871;-81
2023/06/04 15:48:43;;;;;;;0.43;0.43;;;;;;;;;;10306946;28;20233;-83
2023/06/04 15:53:44;;;;;;;0.75;0.43;;;;;;;;;;10292985;28;20221;-80
2023/06/04 15:58:46;;;;;;;0.57;0.40;;;;;;;;;;10314372;28;20242;-81
2023/06/04 16:03:48;;;;;;;0.40;0.40;;;;;;;;;;10286212;28;20936;-83
2023/06/04 16:08:50;;;;;;;0.40;0.40;;;;;;;;;;10305076;28;21422;-83
2023/06/04 16:13:51;;;;;;;0.40;0.40;;;;;;;;;;10289305;28;20380;-81
2023/06/04 16:18:52;;;;;;;0.35;0.35;;;;;;;;;;10266162;28;20222;-83
2023/06/04 16:23:53;;;;;;;0.40;0.40;;;;;;;;;;10289120;28;20759;-82
2023/06/04 16:28:55;;;;;;;1.00;1.00;;;;;;;;;;10311046;28;20336;-83
2023/06/04 16:33:56;;;;;;;3.03;0.50;;;;;;;;;;10307772;28;20284;-79
2023/06/04 16:38:57;;;;;;;0.47;0.47;;;;;;;;;;10311095;28;20210;-82
2023/06/04 16:43:58;;;;;;;0.50;0.50;;;;;;;;;;10290419;28;21193;-81
2023/06/04 16:48:59;;;;;;;1.20;0.40;;;;;;;;;;10300128;28;20225;-78
2023/06/04 16:54:00;;;;;;;2.83;0.40;;;;;;;;;;10290818;28;20513;-83
2023/06/04 16:59:02;;;;;;;0.40;0.40;;;;;;;;;;10297898;28;21068;-86
2023/06/04 17:04:04;;;;;;;1.08;0.40;;;;;;;;;;10302075;28;20214;-82
2023/06/04 17:09:05;;;;;;;0.40;0.40;;;;;;;;;;10297856;28;20225;-83
2023/06/04 17:14:06;;;;;;;0.30;0.30;;;;;;;;;;10303400;28;20921;-81
2023/06/04 17:19:08;;;;;;;0.40;0.40;;;;;;;;;;10311317;28;20766;-80
2023/06/04 17:24:09;;;;;;;0.30;0.30;;;;;;;;;;10295092;28;20306;-81
2023/06/04 17:29:10;;;;;;;0.80;0.30;;;;;;;;;;10276894;28;20218;-80
2023/06/04 17:34:11;;;;;;;0.38;0.38;;;;;;;;;;10294234;28;21740;-81
2023/06/04 17:39:12;;;;;;;0.40;0.40;;;;;;;;;;10295625;28;20233;-84
2023/06/04 17:44:15;;;;;;;5.20;0.30;;;;;;;;;;10279649;28;20218;-80
2023/06/04 17:49:17;;;;;;;0.40;0.40;;;;;;;;;;10309849;28;20274;-79
2023/06/04 18:01:00;;;;;;;0.30;0.30;;;;;;;;;;10351294;28;20249;-80
2023/06/04 18:06:01;;;;;;;1.00;0.30;;;;;;;;;;10364288;28;21875;-80
2023/06/04 18:11:02;;;;;;;1.55;0.30;;;;;;;;;;10328071;28;21225;-78
2023/06/04 18:16:03;;;;;;;0.45;0.40;;;;;;;;;;10311856;28;22717;-78
2023/06/04 18:21:04;;;;;;;0.38;0.38;;;;;;;;;;10310550;28;20352;-80
2023/06/04 18:26:05;;;;;;;0.80;0.50;;;;;;;;;;10310785;28;20222;-83
2023/06/04 18:31:07;;;;;;;0.30;0.30;;;;;;;;;;10327233;28;20229;-84
2023/06/04 18:36:08;;;;;;;0.40;0.40;;;;;;;;;;10296716;28;20214;-85
2023/06/04 18:41:10;;;;;;;0.40;0.40;;;;;;;;;;10277335;28;20226;-82
2023/06/04 18:46:36;;;;;;;0.50;0.50;;;;;;;;;;10313714;28;20268;-80
2023/06/04 18:52:55;;;;;;;0.30;0.30;;;;;;;;;;10347558;28;20223;-80
2023/06/04 18:58:21;;;;;;;0.65;0.30;;;;;;;;;;10342629;28;20278;-81
2023/06/04 19:09:39;;;;;;;0.40;0.40;;;;;;;;;;10298513;28;21492;-81
2023/06/04 19:14:59;;;;;;;0.30;0.30;;;;;;;;;;10277710;28;20222;-81
2023/06/04 19:20:00;;;;;;;0.50;0.30;;;;;;;;;;10285687;28;20231;-81
2023/06/04 19:25:02;;;;;;;1.27;0.40;;;;;;;;;;10269256;28;20206;-82
2023/06/04 19:30:03;;;;;;;0.30;0.30;;;;;;;;;;10278635;28;22020;-83
2023/06/04 19:35:04;;;;;;;0.30;0.30;;;;;;;;;;10285153;28;21337;-82
2023/06/04 19:40:06;;;;;;;0.38;0.38;;;;;;;;;;10265296;28;20773;-83
2023/06/04 19:45:08;;;;;;;0.43;0.35;;;;;;;;;;10270471;28;21603;-88
2023/06/04 19:50:09;;;;;;;0.30;0.30;;;;;;;;;;10282737;28;20855;-83
2023/06/04 19:55:11;;;;;;;0.50;0.50;;;;;;;;;;10250902;28;20329;-80
2023/06/04 20:00:13;;;;;;;0.80;0.80;;;;;;;;;;10314884;28;20240;-82
2023/06/04 20:05:16;;;;;;;0.40;0.40;;;;;;;;;;10333602;28;20191;-85
2023/06/04 20:10:18;;;;;;;0.57;0.57;;;;;;;;;;10348926;28;20210;-79
2023/06/04 20:15:19;;;;;;;0.63;0.50;;;;;;;;;;10289422;28;20285;-82
2023/06/04 20:20:20;;;;;;;1.00;0.63;;;;;;;;;;10327711;28;20222;-81
2023/06/04 20:25:21;;;;;;;0.30;0.30;;;;;;;;;;10342121;28;20222;-80
2023/06/04 20:30:22;;;;;;;0.80;0.40;;;;;;;;;;10363477;28;20222;-83
2023/06/04 20:35:23;;;;;;;1.30;0.50;;;;;;;;;;10360794;28;23988;-81
2023/06/04 20:40:24;;;;;;;0.57;0.57;;;;;;;;;;10297196;28;21731;-81
2023/06/04 20:45:25;;;;;;;0.73;0.40;;;;;;;;;;10286653;28;20309;-81
2023/06/04 20:50:26;;;;;;;0.50;0.50;;;;;;;;;;10321314;28;20465;-80
2023/06/04 20:55:28;;;;;;;2.65;0.60;;;;;;;;;;10316138;28;21827;-80
2023/06/04 21:00:29;;;;;;;0.35;0.35;;;;;;;;;;10325970;28;20309;-83
2023/06/04 21:05:30;;;;;;;0.82;0.30;;;;;;;;;;10343976;28;20249;-82
2023/06/04 21:10:31;;;;;;;0.40;0.40;;;;;;;;;;10335844;28;20345;-82
2023/06/04 21:15:32;;;;;;;2.03;0.40;;;;;;;;;;10338625;28;20415;-81
2023/06/04 21:20:33;;;;;;;0.60;0.50;;;;;;;;;;10358056;28;20229;-79
2023/06/04 21:25:34;;;;;;;0.65;0.40;;;;;;;;;;10356589;28;20214;-80
2023/06/04 21:30:36;;;;;;;0.40;0.40;;;;;;;;;;10353966;28;20214;-80
2023/06/04 21:35:37;;;;;;;7.50;0.50;;;;;;;;;;10353799;28;20222;-81
2023/06/04 21:40:38;;;;;;;0.30;0.30;;;;;;;;;;10361490;28;20753;-81
2023/06/04 21:45:40;;;;;;;0.50;0.50;;;;;;;;;;10330238;28;21236;-82
2023/06/04 21:50:41;;;;;;;0.50;0.50;;;;;;;;;;10382312;28;20287;-81
2023/06/04 21:55:42;;;;;;;1.65;0.45;;;;;;;;;;10390452;28;20230;-82
2023/06/04 22:00:43;;;;;;;0.57;0.40;;;;;;;;;;10353287;28;21003;-82
2023/06/04 22:05:44;;;;;;;0.70;0.30;;;;;;;;;;10361406;28;20240;-80
2023/06/04 22:10:45;;;;;;;0.30;0.30;;;;;;;;;;10369152;28;20219;-83
2023/06/04 22:15:46;;;;;;;0.30;0.30;;;;;;;;;;10373745;28;20850;-79
2023/06/04 22:20:47;;;;;;;0.30;0.30;;;;;;;;;;10370947;28;20222;-81
2023/06/04 22:25:48;;;;;;;0.50;0.40;;;;;;;;;;10401777;28;20213;-82
2023/06/04 22:30:49;;;;;;;0.40;0.40;;;;;;;;;;10389061;28;20214;-80
2023/06/04 22:35:50;;;;;;;0.30;0.30;;;;;;;;;;10398421;28;20255;-80
2023/06/04 22:40:51;;;;;;;0.30;0.30;;;;;;;;;;10401622;28;20234;-81
2023/06/04 22:45:52;;;;;;;0.40;0.40;;;;;;;;;;10356775;28;20218;-81
2023/06/04 22:50:57;;;;;;;1.58;0.38;;;;;;;;;;10338390;28;20233;-83
2023/06/04 22:55:58;;;;;;;0.60;0.60;;;;;;;;;;10368534;28;20687;-82
2023/06/04 23:00:59;;;;;;;0.50;0.43;;;;;;;;;;10355023;28;20675;-80
2023/06/04 23:06:00;;;;;;;0.50;0.50;;;;;;;;;;10344714;28;21870;-80
2023/06/04 23:11:04;;;;;;;0.50;0.50;;;;;;;;;;10335271;28;21348;-81
2023/06/04 23:16:05;;;;;;;0.30;0.30;;;;;;;;;;10366058;28;20213;-81
2023/06/04 23:21:07;;;;;;;0.30;0.30;;;;;;;;;;10353084;28;20771;-80
2023/06/04 23:26:08;;;;;;;0.43;0.43;;;;;;;;;;10344666;28;20226;-83
2023/06/04 23:31:09;;;;;;;0.40;0.40;;;;;;;;;;10385244;28;21252;-81
2023/06/04 23:36:10;;;;;;;0.40;0.40;;;;;;;;;;10385205;28;20213;-82
2023/06/04 23:41:11;;;;;;;0.30;0.30;;;;;;;;;;10348033;28;20225;-82
2023/06/04 23:46:12;;;;;;;2.47;0.40;;;;;;;;;;10350087;28;20235;-81
2023/06/04 23:51:13;;;;;;;0.60;0.60;;;;;;;;;;10354540;28;20210;-82
2023/06/04 23:56:15;;;;;;;0.47;0.47;;;;;;;;;;10330821;28;20217;-81
